createdAt,value
2018-03-20T00:05:27.087Z,7.93
2018-03-20T00:11:31.805Z,7.57
2018-03-20T00:17:36.498Z,7.37
2018-03-20T00:23:41.860Z,7.87
2018-03-20T00:29:46.521Z,6.40
2018-03-20T00:35:51.429Z,5.30
2018-03-20T00:41:55.955Z,5.47
2018-03-20T00:48:01.244Z,5.03
2018-03-20T00:54:05.737Z,5.53
2018-03-20T01:00:10.511Z,5.37
2018-03-20T01:06:17.141Z,6.20
2018-03-20T01:12:21.709Z,5.87
2018-03-20T01:18:26.191Z,4.80
2018-03-20T01:24:30.689Z,5.13
2018-03-20T01:30:35.306Z,6.03
2018-03-20T01:36:39.823Z,5.50
2018-03-20T01:42:45.239Z,5.73
2018-03-20T01:48:50.581Z,5.50
2018-03-20T01:54:55.200Z,5.20
2018-03-20T02:00:59.837Z,6.13
2018-03-20T02:07:04.405Z,6.30
2018-03-20T02:13:08.927Z,5.83
2018-03-20T02:19:13.413Z,6.30
2018-03-20T02:25:18.820Z,6.50
2018-03-20T02:31:23.636Z,8.30
2018-03-20T02:37:28.223Z,6.17
2018-03-20T02:43:32.922Z,7.17
2018-03-20T02:49:37.586Z,7.60
2018-03-20T02:55:42.115Z,7.50
2018-03-20T03:01:47.965Z,8.53
2018-03-20T03:07:53.441Z,7.67
2018-03-20T03:13:57.974Z,7.40
2018-03-20T03:20:02.605Z,7.27
2018-03-20T03:26:07.159Z,7.47
2018-03-20T03:32:11.792Z,7.27
2018-03-20T03:38:16.523Z,7.50
2018-03-20T03:44:21.732Z,7.73
2018-03-20T03:50:27.048Z,7.23
2018-03-20T03:56:31.638Z,7.00
2018-03-20T04:02:36.252Z,6.80
2018-03-20T04:08:41.551Z,13.90
2018-03-20T04:14:46.804Z,7.57
2018-03-20T04:20:52.470Z,6.03
2018-03-20T04:26:58.040Z,6.40
2018-03-20T04:33:02.647Z,6.33
2018-03-20T04:39:07.074Z,6.97
2018-03-20T04:45:11.856Z,7.33
2018-03-20T04:51:16.649Z,5.77
2018-03-20T04:57:22.044Z,6.67
2018-03-20T05:03:26.673Z,6.37
2018-03-20T05:09:31.275Z,5.73
2018-03-20T05:15:35.831Z,6.80
2018-03-20T05:21:46.476Z,6.70
2018-03-20T05:27:51.459Z,6.93
2018-03-20T05:33:56.176Z,7.87
2018-03-20T05:40:00.683Z,7.87
2018-03-20T05:46:05.304Z,7.93
2018-03-20T05:52:09.928Z,9.30
2018-03-20T05:58:14.774Z,8.00
2018-03-20T06:04:19.635Z,9.63
2018-03-20T06:10:24.409Z,9.67
2018-03-20T06:16:29.013Z,9.20
2018-03-20T06:22:33.699Z,7.67
2018-03-20T06:28:38.320Z,7.53
2018-03-20T06:34:43.042Z,8.67
2018-03-20T06:40:49.357Z,8.90
2018-03-20T06:46:53.893Z,9.40
2018-03-20T06:52:58.412Z,9.50
2018-03-20T06:59:03.728Z,8.60
2018-03-20T07:05:08.333Z,8.73
2018-03-20T07:11:13.699Z,14.20
2018-03-20T07:17:19.568Z,10.60
2018-03-20T07:23:24.262Z,8.90
2018-03-20T07:29:28.747Z,9.80
2018-03-20T07:35:34.152Z,10.30
2018-03-20T07:41:38.636Z,9.57
2018-03-20T07:47:43.111Z,10.60
2018-03-20T07:53:48.273Z,10.27
2018-03-20T07:59:53.178Z,9.17
2018-03-20T08:05:57.659Z,13.57
2018-03-20T08:12:02.187Z,14.17
2018-03-20T08:18:07.443Z,14.53
2018-03-20T08:24:11.957Z,14.37
2018-03-20T08:30:17.435Z,14.37
2018-03-20T08:36:21.986Z,18.27
2018-03-20T08:42:26.520Z,21.30
2018-03-20T08:48:31.046Z,18.20
2018-03-20T08:54:35.558Z,17.67
2018-03-20T09:00:40.062Z,18.00
2018-03-20T09:06:44.577Z,19.43
2018-03-20T09:12:50.325Z,19.40
2018-03-20T09:18:54.940Z,18.37
2018-03-20T09:24:59.439Z,17.93
2018-03-20T09:31:03.952Z,16.67
2018-03-20T09:37:08.432Z,18.17
2018-03-20T09:43:12.892Z,15.80
2018-03-20T09:49:18.154Z,15.63
2018-03-20T09:55:22.788Z,15.70
2018-03-20T10:01:27.294Z,12.70
2018-03-20T10:07:31.915Z,13.20
2018-03-20T10:13:36.434Z,10.67
2018-03-20T10:19:40.927Z,8.23
2018-03-20T10:25:46.445Z,10.77
2018-03-20T10:31:51.095Z,11.47
2018-03-20T10:37:56.345Z,14.10
2018-03-20T10:44:00.865Z,16.70
2018-03-20T10:50:05.330Z,5.20
2018-03-20T10:56:09.805Z,5.67
2018-03-20T11:02:20.088Z,5.10
2018-03-20T11:08:24.577Z,5.17
2018-03-20T11:14:29.092Z,4.70
2018-03-20T11:20:34.513Z,4.80
2018-03-20T11:26:38.999Z,3.93
2018-03-20T11:32:43.529Z,4.43
2018-03-20T11:38:48.223Z,4.80
2018-03-20T11:44:53.500Z,4.13
2018-03-20T11:50:58.027Z,3.33
2018-03-20T11:57:02.494Z,4.27
2018-03-20T12:03:06.956Z,3.30
2018-03-20T12:09:29.023Z,3.30
2018-03-20T12:15:33.441Z,3.23
2018-03-20T12:21:38.224Z,3.17
2018-03-20T12:27:43.523Z,4.10
2018-03-20T12:33:48.827Z,2.60
2018-03-20T12:39:53.404Z,3.20
2018-03-20T12:45:57.875Z,3.37
2018-03-20T12:52:02.596Z,3.00
2018-03-20T12:58:07.058Z,3.07
2018-03-20T13:04:11.576Z,3.53
2018-03-20T13:10:16.089Z,3.20
2018-03-20T13:16:21.329Z,3.00
2018-03-20T13:22:25.958Z,2.80
2018-03-20T13:28:31.305Z,2.73
2018-03-20T13:34:35.781Z,2.00
2018-03-20T13:40:40.392Z,2.50
2018-03-20T13:46:44.992Z,2.13
2018-03-20T13:52:50.480Z,2.17
2018-03-20T13:58:55.155Z,2.27
2018-03-20T14:05:00.436Z,1.93
2018-03-20T14:11:04.955Z,1.83
2018-03-20T14:17:10.193Z,2.00
2018-03-20T14:23:14.713Z,2.40
2018-03-20T14:29:19.749Z,2.60
2018-03-20T14:35:24.639Z,2.27
2018-03-20T14:41:29.162Z,2.27
2018-03-20T14:47:33.871Z,1.67
2018-03-20T14:53:44.870Z,2.77
2018-03-20T14:59:50.078Z,1.67
2018-03-20T15:05:54.553Z,1.53
2018-03-20T15:11:59.220Z,1.50
2018-03-20T15:18:03.824Z,1.83
2018-03-20T15:24:08.454Z,2.37
2018-03-20T15:30:12.930Z,1.97
2018-03-20T15:36:18.251Z,1.53
2018-03-20T15:42:22.855Z,1.33
2018-03-20T15:48:27.420Z,1.70
2018-03-20T15:54:31.888Z,1.60
2018-03-20T16:00:36.409Z,1.83
2018-03-20T16:06:41.874Z,1.70
2018-03-20T16:12:48.844Z,1.30
2018-03-20T16:18:53.475Z,1.40
2018-03-20T16:24:58.170Z,1.30
2018-03-20T16:31:02.638Z,1.50
2018-03-20T16:37:07.146Z,2.10
2018-03-20T16:43:12.400Z,1.77
2018-03-20T16:49:17.824Z,2.20
2018-03-20T16:55:22.408Z,2.00
2018-03-20T17:01:27.632Z,1.60
2018-03-20T17:07:32.272Z,1.40
2018-03-20T17:13:36.825Z,2.10
2018-03-20T17:19:41.594Z,2.30
2018-03-20T17:25:46.120Z,16.33
2018-03-20T17:31:51.028Z,2.27
2018-03-20T17:37:55.584Z,1.80
2018-03-20T17:44:00.249Z,1.60
2018-03-20T17:50:04.738Z,1.87
2018-03-20T17:56:09.315Z,2.07
2018-03-20T18:02:15.024Z,1.97
2018-03-20T18:21:20.374Z,1.80
2018-03-20T18:27:24.906Z,1.60
2018-03-20T18:33:29.493Z,1.67
2018-03-20T18:39:34.114Z,1.90
2018-03-20T18:45:38.580Z,1.73
2018-03-20T18:51:43.168Z,1.50
2018-03-20T18:57:48.367Z,2.00
2018-03-20T19:03:53.008Z,1.63
2018-03-20T19:09:58.293Z,1.77
2018-03-20T19:16:03.139Z,1.83
2018-03-20T19:22:07.719Z,1.73
2018-03-20T19:28:12.260Z,1.60
2018-03-20T19:34:16.986Z,1.50
2018-03-20T19:40:21.883Z,1.40
2018-03-20T19:46:27.190Z,1.57
2018-03-20T19:52:32.515Z,2.00
2018-03-20T19:58:37.011Z,1.83
2018-03-20T20:04:41.530Z,1.73
2018-03-20T20:10:46.177Z,2.53
2018-03-20T20:16:51.340Z,1.90
2018-03-20T20:22:55.898Z,1.50
2018-03-20T20:29:00.456Z,1.80
2018-03-20T20:35:05.071Z,2.10
2018-03-20T20:41:09.590Z,1.87
2018-03-20T20:47:14.281Z,1.73
2018-03-20T20:53:19.843Z,1.77
2018-03-20T20:59:24.437Z,1.87
2018-03-20T21:05:29.164Z,1.60
2018-03-20T21:11:33.984Z,1.90
2018-03-20T21:17:38.461Z,1.63
2018-03-20T21:23:43.056Z,2.23
2018-03-20T21:29:48.426Z,1.70
2018-03-20T21:35:53.266Z,1.93
2018-03-20T21:41:57.822Z,2.20
2018-03-20T21:48:03.232Z,1.70
2018-03-20T21:54:07.785Z,1.70
2018-03-20T22:00:12.971Z,2.77
2018-03-20T22:06:18.497Z,2.30
2018-03-20T22:12:23.010Z,1.73
2018-03-20T22:18:28.367Z,2.30
2018-03-20T22:24:33.025Z,1.80
2018-03-20T22:30:37.630Z,2.03
2018-03-20T22:36:42.114Z,1.87
2018-03-20T22:42:48.357Z,2.00
2018-03-20T22:48:53.129Z,2.27
2018-03-20T22:54:57.919Z,1.87
2018-03-20T23:01:02.688Z,2.63
2018-03-20T23:07:08.068Z,2.50
2018-03-20T23:13:13.527Z,2.77
2018-03-20T23:19:18.000Z,2.30
2018-03-20T23:25:22.607Z,2.80
2018-03-20T23:31:27.353Z,2.20
2018-03-20T23:37:31.824Z,2.07
2018-03-20T23:43:36.301Z,2.50
2018-03-20T23:49:40.821Z,2.13
2018-03-20T23:55:45.354Z,2.10
